Time;durP1;ratioP1;P1;durP2;ratioP2;P2;SDS_P1;SDS_P2;PMS_P1;PMS_P2;Temp;Humidity;BMP_temperature;BMP_pressure;BME280_temperature;BME280_humidity;BME280_pressure;Samples;Min_cycle;Max_cycle;Signal;HPM_P1;HPM_P2
2021/04/08 00:01:50;;;;;;;6.60;2.40;;;;;;;1.43;93.43;96742.38;5059133;28;20700;-69
2021/04/08 00:04:17;;;;;;;10.33;2.73;;;;;;;1.43;93.08;96748.41;5059094;28;20244;-69
2021/04/08 00:06:42;;;;;;;8.80;2.37;;;;;;;1.47;92.56;96749.84;5058882;28;20227;-70
2021/04/08 00:09:08;;;;;;;2.47;1.70;;;;;;;1.49;91.91;96744.53;5057534;28;20227;-69
2021/04/08 00:11:34;;;;;;;5.47;2.00;;;;;;;1.44;92.86;96752.66;5059226;28;20280;-70
2021/04/08 00:14:00;;;;;;;6.57;2.60;;;;;;;1.45;92.29;96756.06;5059142;28;20204;-70
2021/04/08 00:16:27;;;;;;;5.63;2.10;;;;;;;1.44;91.92;96757.84;5058543;28;20231;-70
2021/04/08 00:18:53;;;;;;;3.63;2.40;;;;;;;1.44;93.12;96752.66;5058817;28;20203;-69
2021/04/08 00:21:19;;;;;;;6.60;2.43;;;;;;;1.39;92.82;96749.56;5059129;28;20249;-69
2021/04/08 00:23:46;;;;;;;8.23;2.87;;;;;;;1.40;93.65;96748.63;5058484;28;20283;-69
2021/04/08 00:26:12;;;;;;;5.43;2.00;;;;;;;1.38;93.40;96755.69;5058244;28;20232;-70
2021/04/08 00:28:38;;;;;;;8.80;2.70;;;;;;;1.38;93.48;96749.69;5057904;28;20223;-69
2021/04/08 00:31:04;;;;;;;5.93;3.23;;;;;;;1.39;93.63;96751.34;5057823;28;20792;-69
2021/04/08 00:33:31;;;;;;;4.47;2.60;;;;;;;1.40;93.21;96750.38;5058125;28;20308;-68
2021/04/08 00:35:57;;;;;;;8.53;3.27;;;;;;;1.41;92.57;96749.44;5054805;28;20239;-70
2021/04/08 00:38:23;;;;;;;6.00;2.37;;;;;;;1.43;92.63;96751.00;5058247;28;20211;-70
2021/04/08 00:40:49;;;;;;;7.37;2.67;;;;;;;1.44;92.35;96750.06;5058944;28;20216;-69
2021/04/08 00:43:15;;;;;;;4.37;2.50;;;;;;;1.45;92.09;96738.75;5058180;28;20210;-70
2021/04/08 00:45:41;;;;;;;4.50;2.30;;;;;;;1.43;91.76;96738.00;5058054;28;20216;-70
2021/04/08 00:48:07;;;;;;;8.80;3.03;;;;;;;1.41;92.87;96742.50;5058162;28;20927;-70
2021/04/08 00:50:34;;;;;;;7.00;2.67;;;;;;;1.42;93.40;96745.91;5058035;28;20206;-68
2021/04/08 00:53:03;;;;;;;3.70;1.83;;;;;;;1.40;92.95;96748.63;5058564;28;20240;-69
2021/04/08 00:55:33;;;;;;;6.93;2.17;;;;;;;1.42;92.72;96745.91;5057037;28;20223;-69
2021/04/08 00:58:02;;;;;;;6.77;2.63;;;;;;;1.39;92.44;96741.78;5057017;28;20196;-69
2021/04/08 01:00:30;;;;;;;6.83;2.40;;;;;;;1.39;91.63;96752.16;5058313;28;20260;-70
2021/04/08 01:02:56;;;;;;;8.07;2.07;;;;;;;1.41;92.39;96759.81;5058491;28;20195;-70
2021/04/08 01:05:22;;;;;;;5.73;2.20;;;;;;;1.38;93.35;96758.28;5056449;28;20244;-70
2021/04/08 01:07:49;;;;;;;4.90;2.53;;;;;;;1.40;92.95;96764.19;5057651;28;20682;-70
2021/04/08 01:10:17;;;;;;;7.30;3.00;;;;;;;1.40;92.23;96774.59;5057901;28;20215;-69
2021/04/08 01:12:43;;;;;;;3.33;1.77;;;;;;;1.40;92.65;96764.19;5057495;28;20599;-70
2021/04/08 01:15:10;;;;;;;2.93;1.73;;;;;;;1.34;93.16;96766.41;5057077;28;20220;-69
2021/04/08 01:17:42;;;;;;;2.67;1.67;;;;;;;1.37;93.12;96774.78;5058320;28;20203;-70
2021/04/08 01:20:38;;;;;;;6.33;3.20;;;;;;;1.36;94.00;96777.50;5057297;28;20208;-69
2021/04/08 01:23:40;;;;;;;6.23;3.20;;;;;;;1.32;94.75;96781.25;5057490;28;20231;-69
2021/04/08 01:26:19;;;;;;;7.27;3.07;;;;;;;1.34;94.98;96782.81;5056646;28;20223;-70
2021/04/08 01:28:48;;;;;;;8.63;2.43;;;;;;;1.32;96.19;96784.69;5057193;28;20230;-69
2021/04/08 01:31:17;;;;;;;6.10;2.53;;;;;;;1.34;96.29;96780.22;5057486;28;20214;-70
2021/04/08 01:33:46;;;;;;;5.53;3.00;;;;;;;1.31;96.70;96793.41;5054338;28;20204;-69
2021/04/08 01:36:18;;;;;;;9.40;3.27;;;;;;;1.27;96.59;96794.56;5056215;28;20232;-70
2021/04/08 01:38:48;;;;;;;5.40;2.83;;;;;;;1.30;97.24;96791.75;5057374;28;20202;-70
2021/04/08 01:41:17;;;;;;;6.43;3.50;;;;;;;1.25;98.63;96798.22;5057558;28;20223;-70
2021/04/08 01:43:46;;;;;;;7.40;3.40;;;;;;;1.17;100.00;96787.50;5057737;28;20593;-69
2021/04/08 01:46:14;;;;;;;9.67;4.90;;;;;;;1.08;100.00;96792.53;5056177;28;20226;-69
2021/04/08 01:48:45;;;;;;;7.03;2.63;;;;;;;1.06;100.00;96799.56;5056921;28;20607;-70
2021/04/08 01:51:13;;;;;;;16.03;4.73;;;;;;;0.97;100.00;96808.84;5057380;28;20213;-69
2021/04/08 01:53:45;;;;;;;14.97;6.07;;;;;;;0.89;100.00;96813.72;5056544;28;20192;-70
2021/04/08 01:56:11;;;;;;;10.87;4.70;;;;;;;0.80;100.00;96813.50;5056198;28;20229;-70
2021/04/08 01:58:39;;;;;;;17.13;5.47;;;;;;;0.76;100.00;96805.13;5057017;28;20196;-69
2021/04/08 02:01:05;;;;;;;10.97;4.00;;;;;;;0.72;100.00;96808.03;5056832;28;20210;-70
2021/04/08 02:03:34;;;;;;;9.37;5.70;;;;;;;0.65;100.00;96805.03;5057132;28;20554;-70
2021/04/08 02:06:02;;;;;;;10.20;6.00;;;;;;;0.66;100.00;96805.84;5055882;28;20246;-70
2021/04/08 02:08:29;;;;;;;14.10;7.17;;;;;;;0.62;100.00;96809.56;5053210;28;20233;-68
2021/04/08 02:10:56;;;;;;;18.30;7.03;;;;;;;0.68;100.00;96811.75;5056410;28;20812;-71
2021/04/08 02:13:23;;;;;;;15.30;6.77;;;;;;;0.68;100.00;96803.97;5057667;28;20203;-70
2021/04/08 02:15:50;;;;;;;15.27;6.43;;;;;;;0.73;100.00;96807.09;5056255;28;21044;-70
2021/04/08 02:18:19;;;;;;;16.20;5.73;;;;;;;0.76;100.00;96799.94;5057334;28;20580;-69
2021/04/08 02:20:49;;;;;;;15.30;6.77;;;;;;;0.74;100.00;96798.41;5056512;28;20287;-69
2021/04/08 02:23:21;;;;;;;16.83;7.40;;;;;;;0.72;100.00;96802.84;5057732;28;20204;-70
2021/04/08 02:25:49;;;;;;;15.60;6.17;;;;;;;0.73;100.00;96801.91;5055511;28;20217;-70
2021/04/08 02:28:15;;;;;;;13.60;6.87;;;;;;;0.72;100.00;96795.88;5056522;28;20858;-68
2021/04/08 02:30:46;;;;;;;15.67;7.23;;;;;;;0.69;100.00;96796.09;5057220;28;20214;-69
2021/04/08 02:33:17;;;;;;;14.07;6.83;;;;;;;0.74;100.00;96798.41;5056222;28;21338;-70
2021/04/08 02:35:43;;;;;;;16.60;7.47;;;;;;;0.72;100.00;96795.06;5052430;28;21046;-69
2021/04/08 02:38:09;;;;;;;13.80;7.17;;;;;;;0.80;100.00;96797.94;5056766;28;20201;-70
2021/04/08 02:40:36;;;;;;;16.13;6.90;;;;;;;0.80;100.00;96808.31;5056361;28;20218;-69
2021/04/08 02:43:03;;;;;;;19.10;6.57;;;;;;;0.74;100.00;96798.41;5056595;28;20266;-70
2021/04/08 02:45:29;;;;;;;17.87;6.10;;;;;;;0.78;100.00;96794.66;5055953;28;20220;-69
2021/04/08 02:47:55;;;;;;;16.13;4.70;;;;;;;0.79;100.00;96802.31;5056486;28;20204;-71
2021/04/08 02:50:21;;;;;;;16.60;6.63;;;;;;;0.81;100.00;96804.81;5055042;28;20243;-69
2021/04/08 02:52:53;;;;;;;12.17;5.57;;;;;;;0.85;100.00;96814.88;5056160;28;20218;-69
2021/04/08 02:55:24;;;;;;;19.23;6.87;;;;;;;0.89;100.00;96812.88;5056016;28;20296;-68
2021/04/08 02:57:58;;;;;;;11.13;5.70;;;;;;;0.88;100.00;96811.22;5056316;28;20250;-70
2021/04/08 03:00:29;;;;;;;13.63;6.43;;;;;;;0.90;100.00;96817.16;5056758;28;20211;-70
2021/04/08 03:03:00;;;;;;;18.70;8.30;;;;;;;0.89;100.00;96803.34;5056498;28;20211;-70
2021/04/08 03:05:28;;;;;;;14.93;7.17;;;;;;;0.94;100.00;96816.00;5055731;28;20230;-69
2021/04/08 03:07:58;;;;;;;18.77;7.30;;;;;;;0.91;100.00;96814.44;5056153;28;20260;-70
2021/04/08 03:10:24;;;;;;;16.67;5.93;;;;;;;0.93;100.00;96803.94;5056704;28;21050;-70
2021/04/08 03:12:55;;;;;;;9.40;4.23;;;;;;;0.99;100.00;96813.91;5056044;28;20287;-68
2021/04/08 03:15:26;;;;;;;13.70;5.63;;;;;;;0.98;100.00;96817.44;5055715;28;20230;-70
2021/04/08 03:17:53;;;;;;;6.80;3.27;;;;;;;1.00;100.00;96820.78;5056398;28;20223;-70
2021/04/08 03:20:20;;;;;;;12.00;4.93;;;;;;;1.05;100.00;96821.28;5056292;28;20416;-69
2021/04/08 03:22:49;;;;;;;10.73;4.30;;;;;;;1.07;100.00;96828.03;5056171;28;20282;-70
2021/04/08 03:25:16;;;;;;;10.40;5.13;;;;;;;1.13;100.00;96822.41;5056469;28;20276;-70
2021/04/08 03:27:43;;;;;;;7.33;4.13;;;;;;;1.19;100.00;96823.75;5056200;28;20201;-69
2021/04/08 03:30:12;;;;;;;11.73;5.13;;;;;;;1.20;100.00;96826.25;5055398;28;20235;-69
2021/04/08 03:32:39;;;;;;;11.37;6.13;;;;;;;1.19;100.00;96834.16;5055501;28;20195;-69
2021/04/08 03:35:07;;;;;;;17.20;6.43;;;;;;;1.24;100.00;96832.88;5052884;28;20233;-69
2021/04/08 03:37:34;;;;;;;8.87;4.10;;;;;;;1.24;99.05;96838.06;5055596;28;20788;-70
2021/04/08 03:40:00;;;;;;;7.93;4.07;;;;;;;1.28;98.84;96842.94;5055719;28;20242;-70
2021/04/08 03:42:27;;;;;;;9.87;5.07;;;;;;;1.28;98.49;96840.34;5056267;28;20667;-70
2021/04/08 03:44:53;;;;;;;12.03;4.80;;;;;;;1.27;99.64;96841.28;5059507;28;20220;-69
2021/04/08 03:47:21;;;;;;;9.20;3.93;;;;;;;1.33;98.73;96842.63;5058906;28;20276;-70
2021/04/08 03:49:50;;;;;;;11.90;6.17;;;;;;;1.28;100.00;96842.94;5059711;28;20224;-70
2021/04/08 03:52:17;;;;;;;7.83;4.10;;;;;;;1.30;98.15;96851.44;5060238;28;20212;-71
2021/04/08 03:54:44;;;;;;;16.47;6.43;;;;;;;1.32;98.61;96849.59;5059266;28;20244;-69
2021/04/08 03:57:12;;;;;;;5.57;3.57;;;;;;;1.37;97.51;96851.84;5059482;28;20269;-69
2021/04/08 03:59:40;;;;;;;10.50;5.07;;;;;;;1.39;97.94;96857.78;5059116;28;20573;-69
2021/04/08 04:02:06;;;;;;;10.07;4.23;;;;;;;1.38;97.04;96856.94;5059283;28;20251;-69
2021/04/08 04:04:33;;;;;;;8.90;4.67;;;;;;;1.41;97.33;96864.53;5058721;28;20206;-70
2021/04/08 04:07:00;;;;;;;5.63;2.83;;;;;;;1.42;96.11;96850.59;5059164;28;20201;-69
2021/04/08 04:09:26;;;;;;;6.83;3.37;;;;;;;1.41;97.33;96867.13;5058940;28;20224;-70
2021/04/08 04:11:55;;;;;;;11.47;4.93;;;;;;;1.41;97.80;96866.28;5059267;28;20677;-70
2021/04/08 04:14:24;;;;;;;10.77;3.87;;;;;;;1.44;97.86;96869.50;5058786;28;20217;-70
2021/04/08 04:16:52;;;;;;;9.47;5.20;;;;;;;1.45;97.65;96863.38;5059195;28;20248;-69
2021/04/08 04:19:18;;;;;;;9.40;4.70;;;;;;;1.43;98.03;96865.22;5058513;28;20690;-70
2021/04/08 04:21:45;;;;;;;9.30;3.80;;;;;;;1.41;98.04;96859.34;5059091;28;20200;-70
2021/04/08 04:24:11;;;;;;;7.07;3.27;;;;;;;1.43;97.96;96873.03;5059125;28;20209;-69
2021/04/08 04:26:37;;;;;;;11.00;4.53;;;;;;;1.37;98.26;96875.22;5058217;28;20223;-70
2021/04/08 04:29:04;;;;;;;7.57;4.43;;;;;;;1.36;98.56;96861.41;5058251;28;20237;-69
2021/04/08 04:31:32;;;;;;;6.53;3.47;;;;;;;1.34;98.67;96875.44;5059507;28;20200;-69
2021/04/08 04:33:58;;;;;;;7.67;3.50;;;;;;;1.38;97.54;96876.88;5055591;28;20619;-69
2021/04/08 04:36:24;;;;;;;10.07;3.60;;;;;;;1.37;97.87;96876.03;5057963;28;20702;-70
2021/04/08 04:38:51;;;;;;;9.63;3.83;;;;;;;1.37;97.44;96883.81;5059856;28;20258;-69
2021/04/08 04:41:17;;;;;;;4.67;2.27;;;;;;;1.37;98.03;96881.22;5058866;28;20216;-70
2021/04/08 04:43:43;;;;;;;9.27;4.17;;;;;;;1.35;97.98;96892.66;5058048;28;20199;-70
2021/04/08 04:46:10;;;;;;;9.43;5.03;;;;;;;1.34;97.69;96896.22;5057993;28;20231;-71
2021/04/08 04:48:36;;;;;;;11.53;5.77;;;;;;;1.30;98.32;96893.00;5058641;28;20230;-70
2021/04/08 04:51:02;;;;;;;14.20;5.13;;;;;;;1.32;98.84;96896.31;5058222;28;20218;-69
2021/04/08 04:53:28;;;;;;;10.93;4.83;;;;;;;1.33;98.86;96899.72;5058956;28;20255;-70
2021/04/08 04:55:55;;;;;;;23.53;8.13;;;;;;;1.29;98.99;96898.28;5056441;28;20228;-70
2021/04/08 04:58:21;;;;;;;13.37;5.50;;;;;;;1.32;99.60;96911.91;5058342;28;20208;-68
2021/04/08 05:00:47;;;;;;;8.30;4.60;;;;;;;1.31;99.07;96909.38;5058417;28;20197;-69
2021/04/08 05:03:13;;;;;;;10.23;5.37;;;;;;;1.30;100.00;96918.94;5058721;28;20689;-70
2021/04/08 05:05:39;;;;;;;10.40;5.47;;;;;;;1.28;100.00;96919.97;5057076;28;20318;-68
2021/04/08 05:08:05;;;;;;;8.83;4.13;;;;;;;1.30;100.00;96920.72;5058194;28;20213;-70
2021/04/08 05:10:31;;;;;;;8.37;4.27;;;;;;;1.24;100.00;96929.75;5058263;28;20216;-69
2021/04/08 05:12:58;;;;;;;11.73;5.30;;;;;;;1.26;100.00;96924.44;5058470;28;20200;-70
2021/04/08 05:15:24;;;;;;;10.73;5.10;;;;;;;1.27;100.00;96923.50;5056999;28;20223;-70
2021/04/08 05:17:50;;;;;;;11.53;5.20;;;;;;;1.22;100.00;96925.59;5058285;28;20204;-70
2021/04/08 05:20:16;;;;;;;15.53;5.47;;;;;;;1.28;100.00;96926.00;5055268;28;20597;-70
2021/04/08 05:22:42;;;;;;;14.53;5.47;;;;;;;1.26;100.00;96927.03;5056029;28;20272;-69
2021/04/08 05:25:09;;;;;;;7.33;4.70;;;;;;;1.27;100.00;96932.16;5056415;28;20698;-69
2021/04/08 05:27:35;;;;;;;10.87;5.03;;;;;;;1.27;100.00;96939.94;5057529;28;20207;-70
2021/04/08 05:30:03;;;;;;;14.23;5.70;;;;;;;1.30;100.00;96942.31;5057656;28;20239;-70
2021/04/08 05:32:29;;;;;;;12.50;5.87;;;;;;;1.27;100.00;96950.31;5053760;28;20207;-68
2021/04/08 05:34:55;;;;;;;10.80;5.47;;;;;;;1.29;100.00;96943.25;5056922;28;20216;-69
2021/04/08 05:37:21;;;;;;;10.93;5.80;;;;;;;1.37;100.00;96953.91;5053745;28;21222;-69
2021/04/08 05:39:47;;;;;;;12.77;5.97;;;;;;;1.38;100.00;96944.38;5055752;28;20257;-68
2021/04/08 05:42:13;;;;;;;13.07;6.23;;;;;;;1.40;100.00;96950.28;5058336;28;20266;-70
2021/04/08 05:44:39;;;;;;;12.83;5.80;;;;;;;1.36;100.00;96956.63;5056468;28;20208;-70
2021/04/08 05:47:06;;;;;;;12.90;6.17;;;;;;;1.38;100.00;96954.78;5055784;28;20761;-69
2021/04/08 05:49:32;;;;;;;14.67;6.57;;;;;;;1.41;100.00;96955.41;5057135;28;20221;-70
2021/04/08 05:51:58;;;;;;;14.47;7.17;;;;;;;1.48;100.00;96961.00;5057140;28;20265;-68
2021/04/08 05:54:24;;;;;;;15.77;7.60;;;;;;;1.58;100.00;96959.41;5057380;28;20595;-70
2021/04/08 05:56:50;;;;;;;14.37;7.20;;;;;;;1.61;100.00;96967.84;5055629;28;20288;-71
2021/04/08 05:59:16;;;;;;;13.23;7.27;;;;;;;1.62;100.00;96971.28;5058081;28;20297;-68
2021/04/08 06:01:42;;;;;;;13.57;6.23;;;;;;;1.67;100.00;96970.03;5056980;28;20243;-69
2021/04/08 06:04:08;;;;;;;12.93;7.00;;;;;;;1.66;100.00;96963.16;5056790;28;20250;-70
2021/04/08 06:06:34;;;;;;;16.43;7.50;;;;;;;1.62;100.00;96974.69;5055135;28;20227;-70
2021/04/08 06:09:00;;;;;;;12.90;7.27;;;;;;;1.75;100.00;96969.50;5055211;28;20231;-71
2021/04/08 06:11:26;;;;;;;16.53;7.43;;;;;;;1.82;100.00;96974.97;5056166;28;20286;-69
2021/04/08 06:13:52;;;;;;;11.73;6.30;;;;;;;1.75;100.00;96978.09;5056929;28;20231;-68
2021/04/08 06:16:19;;;;;;;15.07;6.70;;;;;;;1.68;100.00;96981.22;5056024;28;20264;-69
2021/04/08 06:18:45;;;;;;;18.00;6.47;;;;;;;1.71;100.00;96986.22;5056638;28;20201;-70
2021/04/08 06:21:12;;;;;;;6.37;3.13;;;;;;;1.66;100.00;96983.13;5057021;28;20211;-70
2021/04/08 06:23:38;;;;;;;14.37;5.80;;;;;;;1.82;100.00;96981.97;5056545;28;20675;-69
2021/04/08 06:26:04;;;;;;;11.60;6.43;;;;;;;1.90;100.00;96985.66;5055809;28;20231;-68
2021/04/08 06:28:30;;;;;;;11.30;5.67;;;;;;;1.96;98.45;96993.03;5056250;28;20228;-69
2021/04/08 06:30:56;;;;;;;11.53;5.33;;;;;;;1.99;98.02;96992.00;5057336;28;20658;-69
2021/04/08 06:33:22;;;;;;;15.83;6.47;;;;;;;2.00;98.50;96993.66;5056434;28;20200;-68
2021/04/08 06:35:48;;;;;;;14.10;6.27;;;;;;;2.05;97.22;96994.16;5055969;28;20217;-68
2021/04/08 06:38:15;;;;;;;15.67;5.97;;;;;;;2.02;96.89;96999.56;5052570;28;20673;-70
2021/04/08 06:40:41;;;;;;;10.20;5.33;;;;;;;2.01;96.70;96995.31;5056909;28;20203;-69
2021/04/08 06:43:10;;;;;;;11.47;4.70;;;;;;;2.09;95.28;96995.63;5054923;28;20204;-70
2021/04/08 06:45:39;;;;;;;12.30;5.40;;;;;;;2.03;94.40;96996.03;5054986;28;20234;-70
2021/04/08 06:48:08;;;;;;;5.43;3.27;;;;;;;2.03;94.80;96990.84;5055470;28;21217;-67
2021/04/08 06:50:36;;;;;;;10.83;4.67;;;;;;;2.13;93.94;96989.25;5055814;28;20224;-69
2021/04/08 06:53:04;;;;;;;8.47;4.00;;;;;;;2.08;94.38;97002.56;5055708;28;20850;-69
2021/04/08 06:55:31;;;;;;;9.40;4.33;;;;;;;2.06;92.29;96998.41;5055298;28;20701;-70
2021/04/08 06:57:58;;;;;;;8.97;3.50;;;;;;;2.02;91.02;97000.38;5056201;28;20293;-70
2021/04/08 07:00:24;;;;;;;10.10;4.23;;;;;;;2.05;91.64;96995.00;5056484;28;20204;-69
2021/04/08 07:02:51;;;;;;;13.63;4.33;;;;;;;2.18;90.84;97001.00;5057006;28;20223;-69
2021/04/08 07:05:17;;;;;;;3.70;2.53;;;;;;;2.28;91.11;97003.75;5055183;28;20246;-70
2021/04/08 07:07:43;;;;;;;6.87;3.13;;;;;;;2.32;89.87;96997.41;5055391;28;20204;-70
2021/04/08 07:10:10;;;;;;;7.87;3.97;;;;;;;2.26;89.53;97010.84;5056097;28;20231;-68
2021/04/08 07:12:38;;;;;;;7.77;3.27;;;;;;;2.16;87.03;97000.25;5055485;28;20725;-70
2021/04/08 07:15:05;;;;;;;6.27;3.60;;;;;;;2.23;87.89;97006.69;5055245;28;21045;-68
2021/04/08 07:17:31;;;;;;;2.60;1.70;;;;;;;2.19;84.47;97007.00;5056906;28;20212;-72
2021/04/08 07:19:58;;;;;;;4.43;2.97;;;;;;;2.06;84.26;97004.47;5058993;28;20197;-69
2021/04/08 07:22:25;;;;;;;7.33;3.80;;;;;;;2.12;87.11;97008.41;5060092;28;20262;-69
2021/04/08 07:24:52;;;;;;;7.13;3.57;;;;;;;2.27;84.29;97012.53;5060862;28;20227;-69
2021/04/08 07:27:19;;;;;;;7.83;3.53;;;;;;;2.27;85.67;97017.72;5059943;28;20223;-69
2021/04/08 07:29:58;;;;;;;9.33;3.73;;;;;;;2.45;86.43;97017.25;5059287;28;20310;-69
2021/04/08 07:32:26;;;;;;;8.60;4.17;;;;;;;2.53;86.73;97013.16;5059685;28;20692;-69
2021/04/08 07:34:54;;;;;;;33.80;17.83;;;;;;;2.55;85.47;97026.06;5059986;28;20219;-69
2021/04/08 07:37:26;;;;;;;22.40;10.17;;;;;;;2.49;85.07;97024.69;5059088;28;20205;-71
2021/04/08 07:39:53;;;;;;;11.47;6.07;;;;;;;2.52;87.15;97024.50;5059193;28;20199;-68
2021/04/08 07:42:26;;;;;;;18.90;9.60;;;;;;;2.70;86.94;97025.78;5059850;28;20200;-72
2021/04/08 07:44:55;;;;;;;11.70;6.07;;;;;;;2.64;84.92;97028.81;5058248;28;20292;-69
2021/04/08 07:47:24;;;;;;;25.93;9.10;;;;;;;2.68;85.30;97026.81;5057915;28;20211;-68
2021/04/08 07:49:51;;;;;;;12.57;5.20;;;;;;;2.74;85.64;97040.22;5059280;28;20220;-73
2021/04/08 07:52:20;;;;;;;72.50;21.20;;;;;;;2.71;81.97;97034.41;5059266;28;21294;-71
2021/04/08 07:55:06;;;;;;;13.73;4.40;;;;;;;2.64;84.39;97041.81;5059205;28;20310;-70
2021/04/08 07:57:49;;;;;;;7.07;3.23;;;;;;;2.84;82.89;97035.19;5059813;28;20199;-72
2021/04/08 08:00:19;;;;;;;10.77;4.87;;;;;;;2.96;82.79;97040.34;5059244;28;20205;-68
2021/04/08 08:02:45;;;;;;;9.57;4.73;;;;;;;3.11;80.79;97041.81;5058251;28;20203;-68
2021/04/08 08:05:24;;;;;;;11.70;4.20;;;;;;;3.13;79.06;97048.56;5058828;28;20236;-69
2021/04/08 08:07:51;;;;;;;13.17;4.77;;;;;;;3.26;78.90;97051.94;5058165;28;20767;-69
2021/04/08 08:10:26;;;;;;;8.47;4.33;;;;;;;3.30;78.03;97044.75;5058174;28;20232;-71
2021/04/08 08:12:53;;;;;;;7.33;4.07;;;;;;;3.59;78.42;97052.03;5058404;28;20199;-70
2021/04/08 08:15:23;;;;;;;10.00;4.00;;;;;;;3.77;76.01;97055.84;5058442;28;21344;-73
2021/04/08 08:17:50;;;;;;;9.50;3.70;;;;;;;3.75;74.64;97061.16;5058537;28;20208;-72
2021/04/08 08:20:17;;;;;;;10.63;3.07;;;;;;;3.74;77.79;97051.72;5058244;28;20205;-69
2021/04/08 08:22:44;;;;;;;12.27;4.97;;;;;;;3.95;75.02;97054.47;5057729;28;20201;-70
2021/04/08 08:25:11;;;;;;;10.93;4.53;;;;;;;4.10;74.48;97058.47;5057764;28;20216;-70
2021/04/08 08:27:46;;;;;;;16.63;7.17;;;;;;;4.02;75.77;97059.09;5059002;28;20200;-71
2021/04/08 08:30:18;;;;;;;23.47;9.07;;;;;;;4.10;74.87;97064.53;5056977;28;20227;-72
2021/04/08 08:33:07;;;;;;;10.37;4.50;;;;;;;3.93;74.35;97067.59;5057617;28;20211;-72
2021/04/08 08:35:34;;;;;;;14.53;5.97;;;;;;;3.91;74.39;97061.69;5058856;28;20227;-68
2021/04/08 08:38:07;;;;;;;13.93;5.60;;;;;;;3.79;73.28;97065.22;5055740;28;21141;-68
2021/04/08 08:40:34;;;;;;;11.00;4.33;;;;;;;3.89;73.29;97065.34;5057345;28;20254;-70
2021/04/08 08:43:01;;;;;;;13.73;5.90;;;;;;;3.94;73.54;97058.81;5057670;28;20674;-69
2021/04/08 08:45:27;;;;;;;9.30;3.97;;;;;;;3.85;71.22;97069.94;5057507;28;20220;-71
2021/04/08 08:47:54;;;;;;;13.83;5.17;;;;;;;3.76;71.57;97067.22;5057523;28;20197;-69
2021/04/08 08:50:21;;;;;;;6.23;3.67;;;;;;;3.93;73.26;97062.38;5058504;28;20224;-70
2021/04/08 08:52:51;;;;;;;9.10;4.17;;;;;;;4.06;70.85;97064.88;5057363;28;20665;-73
2021/04/08 08:55:19;;;;;;;8.37;3.80;;;;;;;4.45;72.64;97058.22;5057441;28;20231;-71
2021/04/08 08:57:49;;;;;;;4.93;3.20;;;;;;;4.59;69.48;97062.38;5057855;28;20204;-69
2021/04/08 09:00:16;;;;;;;9.97;3.40;;;;;;;4.38;68.56;97064.88;5058256;28;20656;-73
2021/04/08 09:02:43;;;;;;;11.20;3.80;;;;;;;4.35;69.29;97064.28;5057478;28;20200;-68
2021/04/08 09:05:14;;;;;;;10.87;4.57;;;;;;;4.50;72.42;97056.09;5057104;28;20243;-69
2021/04/08 09:07:42;;;;;;;6.50;3.63;;;;;;;4.62;71.47;97055.16;5057368;28;20261;-70
2021/04/08 09:10:11;;;;;;;8.30;3.73;;;;;;;4.66;71.71;97058.31;5056641;28;20246;-73
2021/04/08 09:12:37;;;;;;;10.40;4.20;;;;;;;4.59;71.75;97059.75;5057702;28;20208;-72
2021/04/08 09:15:06;;;;;;;7.73;4.30;;;;;;;4.69;72.28;97065.94;5056715;28;20287;-73
2021/04/08 09:17:42;;;;;;;6.20;2.80;;;;;;;4.33;66.15;97066.22;5057174;28;20209;-71
2021/04/08 09:20:11;;;;;;;10.87;3.37;;;;;;;4.19;69.57;97063.84;5057587;28;20211;-71
2021/04/08 09:22:50;;;;;;;4.70;3.40;;;;;;;4.36;68.39;97066.78;5057332;28;20280;-72
2021/04/08 09:25:16;;;;;;;8.63;3.63;;;;;;;4.43;67.14;97059.28;5056471;28;20216;-68
2021/04/08 09:27:50;;;;;;;4.77;2.97;;;;;;;4.59;65.85;97063.19;5054073;28;20214;-72
2021/04/08 09:30:32;;;;;;;8.93;3.60;;;;;;;4.71;65.04;97066.63;5057545;28;20228;-70
2021/04/08 09:32:58;;;;;;;7.87;3.60;;;;;;;4.88;66.25;97059.94;5056053;28;20211;-68
2021/04/08 09:35:29;;;;;;;5.23;3.23;;;;;;;4.75;68.60;97075.84;5056906;28;20220;-71
2021/04/08 09:38:21;;;;;;;5.80;3.43;;;;;;;4.21;72.61;97072.34;5051908;28;20207;-68
2021/04/08 09:40:59;;;;;;;11.17;5.07;;;;;;;3.99;79.81;97072.34;5056011;28;20232;-73
2021/04/08 09:43:26;;;;;;;11.03;5.23;;;;;;;3.91;81.90;97063.47;5056605;28;20221;-72
2021/04/08 09:46:02;;;;;;;9.83;5.10;;;;;;;3.99;79.09;97076.75;5056903;28;20245;-68
2021/04/08 09:48:43;;;;;;;9.63;4.70;;;;;;;3.99;80.43;97079.34;5056209;28;20203;-68
2021/04/08 09:51:10;;;;;;;12.63;5.40;;;;;;;4.34;77.71;97062.63;5057520;28;20205;-68
2021/04/08 09:53:59;;;;;;;9.67;5.50;;;;;;;4.60;76.32;97051.00;5054737;28;20265;-69
2021/04/08 09:56:41;;;;;;;11.03;5.40;;;;;;;4.86;77.61;97056.63;5055329;28;20311;-68
2021/04/08 09:59:07;;;;;;;8.13;4.57;;;;;;;5.38;76.67;97051.44;5055809;28;20254;-69
2021/04/08 10:01:33;;;;;;;14.03;4.90;;;;;;;5.67;75.42;97057.72;5057180;28;20212;-70
2021/04/08 10:04:10;;;;;;;14.97;5.60;;;;;;;5.49;77.47;97052.22;5056377;28;20207;-72
2021/04/08 10:06:36;;;;;;;8.83;4.77;;;;;;;5.33;69.48;97045.75;5055897;28;20227;-70
2021/04/08 10:09:07;;;;;;;10.63;4.63;;;;;;;5.36;69.78;97047.28;5056412;28;20227;-72
2021/04/08 10:11:33;;;;;;;7.10;3.80;;;;;;;5.36;67.96;97048.13;5056136;28;20204;-71
2021/04/08 10:13:59;;;;;;;10.10;4.30;;;;;;;5.19;68.44;97053.88;5055771;28;20258;-73
2021/04/08 10:16:26;;;;;;;6.33;4.17;;;;;;;5.24;68.53;97054.34;5055277;28;20216;-70
2021/04/08 10:18:59;;;;;;;8.80;4.10;;;;;;;5.18;69.54;97047.03;5056213;28;20207;-71
2021/04/08 10:21:26;;;;;;;6.17;3.37;;;;;;;5.35;69.07;97043.03;5056171;28;20251;-69
2021/04/08 10:23:54;;;;;;;8.83;3.87;;;;;;;5.53;65.29;97042.34;5054785;28;20206;-68
2021/04/08 10:26:24;;;;;;;9.73;4.10;;;;;;;6.11;62.12;97034.75;5054089;28;20627;-70
2021/04/08 10:28:52;;;;;;;8.93;4.43;;;;;;;5.85;63.40;97027.44;5053997;28;20243;-72
2021/04/08 10:31:21;;;;;;;10.20;6.50;;;;;;;5.90;63.45;97023.47;5056191;28;20200;-71
2021/04/08 10:33:49;;;;;;;8.73;4.00;;;;;;;5.72;62.36;97032.81;5055065;28;20192;-73
2021/04/08 10:36:29;;;;;;;8.57;4.00;;;;;;;5.46;60.26;97038.59;5054521;28;20220;-72
2021/04/08 10:39:06;;;;;;;8.00;2.57;;;;;;;4.96;62.05;97041.88;5051770;28;20196;-73
2021/04/08 10:41:34;;;;;;;7.07;2.80;;;;;;;4.84;61.85;97037.63;5056127;28;20208;-68
2021/04/08 10:44:22;;;;;;;4.27;2.70;;;;;;;4.78;60.87;97037.28;5056097;28;21062;-68
2021/04/08 10:46:48;;;;;;;5.93;2.33;;;;;;;4.95;61.34;97037.59;5055690;28;20592;-71
2021/04/08 10:49:28;;;;;;;4.30;2.63;;;;;;;5.26;61.90;97039.38;5056469;28;20613;-71
2021/04/08 10:51:55;;;;;;;5.20;3.10;;;;;;;5.23;60.18;97037.03;5056742;28;20207;-70
2021/04/08 10:54:26;;;;;;;3.83;2.33;;;;;;;5.00;59.58;97043.28;5058406;28;20204;-68
2021/04/08 10:56:54;;;;;;;4.27;2.40;;;;;;;5.04;58.89;97036.88;5059987;28;20204;-68
2021/04/08 10:59:21;;;;;;;7.50;3.73;;;;;;;5.25;59.86;97037.72;5060120;28;20204;-72
2021/04/08 11:01:49;;;;;;;11.20;4.13;;;;;;;5.25;58.51;97042.13;5060263;28;20289;-71
2021/04/08 11:04:15;;;;;;;4.17;2.73;;;;;;;5.23;60.26;97038.81;5061062;28;20201;-68
2021/04/08 11:06:41;;;;;;;5.07;2.87;;;;;;;5.55;60.41;97035.22;5059314;28;21166;-69
2021/04/08 11:09:08;;;;;;;5.43;2.83;;;;;;;5.48;59.37;97039.28;5059902;28;20239;-69
2021/04/08 11:11:34;;;;;;;7.27;2.73;;;;;;;5.47;57.96;97037.59;5058640;28;20204;-72
2021/04/08 11:14:01;;;;;;;10.37;3.00;;;;;;;5.58;56.92;97032.34;5060187;28;20204;-72
2021/04/08 11:16:29;;;;;;;6.77;2.90;;;;;;;6.03;57.59;97025.88;5059208;28;21020;-70
2021/04/08 11:18:58;;;;;;;6.00;3.07;;;;;;;6.28;55.84;97021.03;5060031;28;20200;-70
2021/04/08 11:21:26;;;;;;;5.63;3.00;;;;;;;6.66;54.24;97006.28;5058738;28;20876;-69
2021/04/08 11:23:54;;;;;;;7.87;2.23;;;;;;;7.00;51.78;97020.66;5059735;28;20204;-70
2021/04/08 11:26:20;;;;;;;3.93;2.27;;;;;;;6.88;51.81;97011.28;5058193;28;20804;-73
2021/04/08 11:28:53;;;;;;;3.57;2.50;;;;;;;6.35;53.00;97014.31;5058985;28;20204;-70
2021/04/08 11:31:22;;;;;;;6.70;2.87;;;;;;;6.27;52.83;97007.09;5059545;28;20208;-68
2021/04/08 11:34:00;;;;;;;7.57;3.10;;;;;;;6.76;51.82;97007.94;5059262;28;20208;-70
2021/04/08 11:36:26;;;;;;;8.90;2.60;;;;;;;7.27;48.98;97013.78;5057614;28;20216;-73
2021/04/08 11:38:53;;;;;;;3.43;2.13;;;;;;;6.87;49.90;97004.38;5055982;28;20562;-72
2021/04/08 11:41:19;;;;;;;4.50;2.00;;;;;;;6.69;51.18;97001.59;5059066;28;20211;-69